sensor_id;sensor_type;location;lat;lon;timestamp;P1;durP1;ratioP1;P2;durP2;ratioP2
13959;SDS011;7052;51.050;3.716;2024-02-26T00:00:11;2.23;;;1.70;;
13959;SDS011;7052;51.050;3.716;2024-02-26T00:02:44;2.37;;;1.63;;
13959;SDS011;7052;51.050;3.716;2024-02-26T00:05:11;2.07;;;1.70;;
13959;SDS011;7052;51.050;3.716;2024-02-26T00:07:39;2.03;;;1.80;;
13959;SDS011;7052;51.050;3.716;2024-02-26T00:10:06;2.90;;;2.03;;
13959;SDS011;7052;51.050;3.716;2024-02-26T00:12:34;3.43;;;1.83;;
13959;SDS011;7052;51.050;3.716;2024-02-26T00:15:04;1.87;;;1.77;;
13959;SDS011;7052;51.050;3.716;2024-02-26T00:17:33;2.50;;;1.90;;
13959;SDS011;7052;51.050;3.716;2024-02-26T00:20:00;3.20;;;2.07;;
13959;SDS011;7052;51.050;3.716;2024-02-26T00:22:29;3.70;;;2.03;;
13959;SDS011;7052;51.050;3.716;2024-02-26T00:24:56;3.23;;;2.37;;
13959;SDS011;7052;51.050;3.716;2024-02-26T00:27:24;3.20;;;2.10;;
13959;SDS011;7052;51.050;3.716;2024-02-26T00:29:52;3.50;;;2.03;;
13959;SDS011;7052;51.050;3.716;2024-02-26T00:32:19;2.53;;;2.00;;
13959;SDS011;7052;51.050;3.716;2024-02-26T00:34:48;2.97;;;2.10;;
13959;SDS011;7052;51.050;3.716;2024-02-26T00:37:17;4.07;;;2.20;;
13959;SDS011;7052;51.050;3.716;2024-02-26T00:39:44;2.83;;;2.10;;
13959;SDS011;7052;51.050;3.716;2024-02-26T00:42:12;2.30;;;1.93;;
13959;SDS011;7052;51.050;3.716;2024-02-26T00:44:39;2.50;;;2.17;;
13959;SDS011;7052;51.050;3.716;2024-02-26T00:47:06;1.93;;;1.73;;
13959;SDS011;7052;51.050;3.716;2024-02-26T00:49:33;3.17;;;2.00;;
13959;SDS011;7052;51.050;3.716;2024-02-26T00:52:04;2.57;;;1.80;;
13959;SDS011;7052;51.050;3.716;2024-02-26T00:54:31;3.90;;;1.90;;
13959;SDS011;7052;51.050;3.716;2024-02-26T00:56:58;2.53;;;1.80;;
13959;SDS011;7052;51.050;3.716;2024-02-26T00:59:25;1.73;;;1.63;;
13959;SDS011;7052;51.050;3.716;2024-02-26T01:01:52;3.23;;;1.90;;
13959;SDS011;7052;51.050;3.716;2024-02-26T01:04:19;2.50;;;1.90;;
13959;SDS011;7052;51.050;3.716;2024-02-26T01:06:47;2.70;;;1.80;;
13959;SDS011;7052;51.050;3.716;2024-02-26T01:09:16;2.60;;;1.83;;
13959;SDS011;7052;51.050;3.716;2024-02-26T01:11:45;2.17;;;1.87;;
13959;SDS011;7052;51.050;3.716;2024-02-26T01:14:12;2.50;;;1.80;;
13959;SDS011;7052;51.050;3.716;2024-02-26T01:16:40;3.97;;;2.20;;
13959;SDS011;7052;51.050;3.716;2024-02-26T01:19:06;4.20;;;2.00;;
13959;SDS011;7052;51.050;3.716;2024-02-26T01:21:34;2.77;;;1.80;;
13959;SDS011;7052;51.050;3.716;2024-02-26T01:24:01;2.57;;;2.10;;
13959;SDS011;7052;51.050;3.716;2024-02-26T01:26:30;2.20;;;2.00;;
13959;SDS011;7052;51.050;3.716;2024-02-26T01:28:57;2.40;;;1.90;;
13959;SDS011;7052;51.050;3.716;2024-02-26T01:31:24;3.00;;;2.20;;
13959;SDS011;7052;51.050;3.716;2024-02-26T01:33:52;2.10;;;1.67;;
13959;SDS011;7052;51.050;3.716;2024-02-26T01:36:18;2.50;;;1.70;;
13959;SDS011;7052;51.050;3.716;2024-02-26T01:38:46;2.17;;;1.90;;
13959;SDS011;7052;51.050;3.716;2024-02-26T01:41:14;3.60;;;2.00;;
13959;SDS011;7052;51.050;3.716;2024-02-26T01:43:43;2.23;;;1.97;;
13959;SDS011;7052;51.050;3.716;2024-02-26T01:46:10;2.90;;;2.10;;
13959;SDS011;7052;51.050;3.716;2024-02-26T01:48:40;3.47;;;1.90;;
13959;SDS011;7052;51.050;3.716;2024-02-26T01:51:11;2.90;;;1.77;;
13959;SDS011;7052;51.050;3.716;2024-02-26T01:53:40;2.10;;;1.90;;
13959;SDS011;7052;51.050;3.716;2024-02-26T01:56:08;2.30;;;2.10;;
13959;SDS011;7052;51.050;3.716;2024-02-26T01:58:36;2.73;;;2.10;;
13959;SDS011;7052;51.050;3.716;2024-02-26T02:01:09;2.27;;;2.00;;
13959;SDS011;7052;51.050;3.716;2024-02-26T02:03:37;2.10;;;1.83;;
13959;SDS011;7052;51.050;3.716;2024-02-26T02:06:06;2.40;;;2.10;;
13959;SDS011;7052;51.050;3.716;2024-02-26T02:08:34;3.40;;;2.00;;
13959;SDS011;7052;51.050;3.716;2024-02-26T02:11:04;2.50;;;2.07;;
13959;SDS011;7052;51.050;3.716;2024-02-26T02:13:34;2.37;;;2.10;;
13959;SDS011;7052;51.050;3.716;2024-02-26T02:16:02;3.47;;;2.20;;
13959;SDS011;7052;51.050;3.716;2024-02-26T02:18:38;3.10;;;2.10;;
13959;SDS011;7052;51.050;3.716;2024-02-26T02:21:07;1.57;;;1.43;;
13959;SDS011;7052;51.050;3.716;2024-02-26T02:23:34;2.97;;;1.93;;
13959;SDS011;7052;51.050;3.716;2024-02-26T02:26:01;2.57;;;1.70;;
13959;SDS011;7052;51.050;3.716;2024-02-26T02:28:28;2.27;;;1.80;;
13959;SDS011;7052;51.050;3.716;2024-02-26T02:30:59;2.50;;;2.00;;
13959;SDS011;7052;51.050;3.716;2024-02-26T02:33:27;2.30;;;2.00;;
13959;SDS011;7052;51.050;3.716;2024-02-26T02:35:54;2.53;;;2.27;;
13959;SDS011;7052;51.050;3.716;2024-02-26T02:38:24;2.40;;;1.70;;
13959;SDS011;7052;51.050;3.716;2024-02-26T02:40:51;2.97;;;2.30;;
13959;SDS011;7052;51.050;3.716;2024-02-26T02:43:18;2.60;;;2.13;;
13959;SDS011;7052;51.050;3.716;2024-02-26T02:45:45;2.30;;;2.10;;
13959;SDS011;7052;51.050;3.716;2024-02-26T02:48:12;3.20;;;2.40;;
13959;SDS011;7052;51.050;3.716;2024-02-26T02:50:40;3.27;;;2.30;;
13959;SDS011;7052;51.050;3.716;2024-02-26T02:53:06;5.03;;;2.23;;
13959;SDS011;7052;51.050;3.716;2024-02-26T02:55:35;3.10;;;2.40;;
13959;SDS011;7052;51.050;3.716;2024-02-26T02:58:02;2.27;;;2.00;;
13959;SDS011;7052;51.050;3.716;2024-02-26T03:00:29;3.10;;;2.20;;
13959;SDS011;7052;51.050;3.716;2024-02-26T03:02:56;3.43;;;2.43;;
13959;SDS011;7052;51.050;3.716;2024-02-26T03:05:23;3.73;;;2.70;;
13959;SDS011;7052;51.050;3.716;2024-02-26T03:07:50;2.83;;;2.20;;
13959;SDS011;7052;51.050;3.716;2024-02-26T03:10:17;3.90;;;2.57;;
13959;SDS011;7052;51.050;3.716;2024-02-26T03:12:46;2.90;;;2.57;;
13959;SDS011;7052;51.050;3.716;2024-02-26T03:15:13;6.33;;;2.30;;
13959;SDS011;7052;51.050;3.716;2024-02-26T03:17:40;3.53;;;2.83;;
13959;SDS011;7052;51.050;3.716;2024-02-26T03:20:08;2.90;;;2.60;;
13959;SDS011;7052;51.050;3.716;2024-02-26T03:22:38;3.40;;;3.00;;
13959;SDS011;7052;51.050;3.716;2024-02-26T03:25:05;3.27;;;2.97;;
13959;SDS011;7052;51.050;3.716;2024-02-26T03:27:33;4.20;;;3.37;;
13959;SDS011;7052;51.050;3.716;2024-02-26T03:30:03;4.40;;;4.00;;
13959;SDS011;7052;51.050;3.716;2024-02-26T03:32:31;4.80;;;4.03;;
13959;SDS011;7052;51.050;3.716;2024-02-26T03:34:59;5.23;;;4.73;;
13959;SDS011;7052;51.050;3.716;2024-02-26T03:37:28;4.30;;;3.90;;
13959;SDS011;7052;51.050;3.716;2024-02-26T03:39:55;5.23;;;4.73;;
13959;SDS011;7052;51.050;3.716;2024-02-26T03:42:23;4.47;;;4.07;;
13959;SDS011;7052;51.050;3.716;2024-02-26T03:44:52;4.47;;;4.00;;
13959;SDS011;7052;51.050;3.716;2024-02-26T03:47:21;6.40;;;4.30;;
13959;SDS011;7052;51.050;3.716;2024-02-26T03:49:48;5.23;;;4.10;;
13959;SDS011;7052;51.050;3.716;2024-02-26T03:52:15;6.13;;;4.80;;
13959;SDS011;7052;51.050;3.716;2024-02-26T03:54:42;5.23;;;4.73;;
13959;SDS011;7052;51.050;3.716;2024-02-26T03:57:10;4.30;;;3.90;;
13959;SDS011;7052;51.050;3.716;2024-02-26T03:59:37;5.63;;;4.07;;
13959;SDS011;7052;51.050;3.716;2024-02-26T04:02:04;7.53;;;4.53;;
13959;SDS011;7052;51.050;3.716;2024-02-26T04:04:34;5.67;;;5.03;;
13959;SDS011;7052;51.050;3.716;2024-02-26T04:07:01;4.53;;;4.13;;
13959;SDS011;7052;51.050;3.716;2024-02-26T04:09:34;5.67;;;5.13;;
13959;SDS011;7052;51.050;3.716;2024-02-26T04:12:01;6.47;;;5.13;;
13959;SDS011;7052;51.050;3.716;2024-02-26T04:14:28;5.73;;;5.07;;
13959;SDS011;7052;51.050;3.716;2024-02-26T04:16:55;6.93;;;5.70;;
13959;SDS011;7052;51.050;3.716;2024-02-26T04:19:27;6.23;;;5.63;;
13959;SDS011;7052;51.050;3.716;2024-02-26T04:21:56;7.43;;;5.83;;
13959;SDS011;7052;51.050;3.716;2024-02-26T04:24:22;7.40;;;5.07;;
13959;SDS011;7052;51.050;3.716;2024-02-26T04:26:49;6.17;;;5.57;;
13959;SDS011;7052;51.050;3.716;2024-02-26T04:29:17;6.27;;;5.63;;
13959;SDS011;7052;51.050;3.716;2024-02-26T04:31:45;6.67;;;6.07;;
13959;SDS011;7052;51.050;3.716;2024-02-26T04:34:13;5.63;;;4.87;;
13959;SDS011;7052;51.050;3.716;2024-02-26T04:36:39;6.43;;;5.30;;
13959;SDS011;7052;51.050;3.716;2024-02-26T04:39:09;6.87;;;6.10;;
13959;SDS011;7052;51.050;3.716;2024-02-26T04:41:36;6.90;;;5.90;;
13959;SDS011;7052;51.050;3.716;2024-02-26T04:44:03;7.70;;;6.47;;
13959;SDS011;7052;51.050;3.716;2024-02-26T04:46:30;6.57;;;5.90;;
13959;SDS011;7052;51.050;3.716;2024-02-26T04:48:58;6.60;;;5.63;;
13959;SDS011;7052;51.050;3.716;2024-02-26T04:51:25;5.80;;;5.30;;
13959;SDS011;7052;51.050;3.716;2024-02-26T04:53:52;5.37;;;4.87;;
13959;SDS011;7052;51.050;3.716;2024-02-26T04:56:21;5.60;;;4.43;;
13959;SDS011;7052;51.050;3.716;2024-02-26T04:58:49;5.23;;;4.80;;
13959;SDS011;7052;51.050;3.716;2024-02-26T05:01:16;6.23;;;5.63;;
13959;SDS011;7052;51.050;3.716;2024-02-26T05:03:43;4.97;;;4.40;;
13959;SDS011;7052;51.050;3.716;2024-02-26T05:06:11;5.27;;;4.77;;
13959;SDS011;7052;51.050;3.716;2024-02-26T05:08:38;6.20;;;5.47;;
13959;SDS011;7052;51.050;3.716;2024-02-26T05:11:05;6.27;;;5.67;;
13959;SDS011;7052;51.050;3.716;2024-02-26T05:13:34;5.53;;;4.93;;
13959;SDS011;7052;51.050;3.716;2024-02-26T05:16:01;6.50;;;5.90;;
13959;SDS011;7052;51.050;3.716;2024-02-26T05:18:28;5.53;;;5.03;;
13959;SDS011;7052;51.050;3.716;2024-02-26T05:20:55;5.13;;;4.43;;
13959;SDS011;7052;51.050;3.716;2024-02-26T05:23:22;7.50;;;5.13;;
13959;SDS011;7052;51.050;3.716;2024-02-26T05:25:49;5.30;;;4.80;;
13959;SDS011;7052;51.050;3.716;2024-02-26T05:28:17;4.80;;;4.33;;
13959;SDS011;7052;51.050;3.716;2024-02-26T05:30:48;4.90;;;4.40;;
13959;SDS011;7052;51.050;3.716;2024-02-26T05:33:17;5.60;;;5.10;;
13959;SDS011;7052;51.050;3.716;2024-02-26T05:35:45;5.10;;;4.60;;
13959;SDS011;7052;51.050;3.716;2024-02-26T05:38:14;5.87;;;4.37;;
13959;SDS011;7052;51.050;3.716;2024-02-26T05:40:44;4.67;;;4.27;;
13959;SDS011;7052;51.050;3.716;2024-02-26T05:43:11;4.20;;;3.80;;
13959;SDS011;7052;51.050;3.716;2024-02-26T05:45:40;3.80;;;3.50;;
13959;SDS011;7052;51.050;3.716;2024-02-26T05:48:11;4.63;;;4.23;;
13959;SDS011;7052;51.050;3.716;2024-02-26T05:50:38;4.90;;;3.90;;
13959;SDS011;7052;51.050;3.716;2024-02-26T05:53:05;4.77;;;4.00;;
13959;SDS011;7052;51.050;3.716;2024-02-26T05:55:31;3.03;;;2.73;;
13959;SDS011;7052;51.050;3.716;2024-02-26T05:57:59;5.53;;;4.43;;
13959;SDS011;7052;51.050;3.716;2024-02-26T06:00:25;4.73;;;4.30;;
13959;SDS011;7052;51.050;3.716;2024-02-26T06:02:52;5.20;;;4.70;;
13959;SDS011;7052;51.050;3.716;2024-02-26T06:05:21;5.43;;;4.93;;
13959;SDS011;7052;51.050;3.716;2024-02-26T06:07:49;6.67;;;4.73;;
13959;SDS011;7052;51.050;3.716;2024-02-26T06:10:16;7.40;;;5.03;;
13959;SDS011;7052;51.050;3.716;2024-02-26T06:12:46;6.23;;;4.67;;
13959;SDS011;7052;51.050;3.716;2024-02-26T06:15:13;5.00;;;4.27;;
13959;SDS011;7052;51.050;3.716;2024-02-26T06:17:42;6.07;;;5.47;;
13959;SDS011;7052;51.050;3.716;2024-02-26T06:20:09;6.60;;;5.00;;
13959;SDS011;7052;51.050;3.716;2024-02-26T06:22:40;5.53;;;4.93;;
13959;SDS011;7052;51.050;3.716;2024-02-26T06:25:08;5.80;;;5.30;;
13959;SDS011;7052;51.050;3.716;2024-02-26T06:27:36;6.00;;;5.40;;
13959;SDS011;7052;51.050;3.716;2024-02-26T06:30:03;6.37;;;5.60;;
13959;SDS011;7052;51.050;3.716;2024-02-26T06:32:32;7.33;;;5.70;;
13959;SDS011;7052;51.050;3.716;2024-02-26T06:35:03;6.60;;;5.27;;
13959;SDS011;7052;51.050;3.716;2024-02-26T06:37:32;8.57;;;6.00;;
13959;SDS011;7052;51.050;3.716;2024-02-26T06:40:01;6.83;;;5.93;;
13959;SDS011;7052;51.050;3.716;2024-02-26T06:42:29;6.60;;;5.90;;
13959;SDS011;7052;51.050;3.716;2024-02-26T06:44:55;6.90;;;5.97;;
13959;SDS011;7052;51.050;3.716;2024-02-26T06:47:23;6.50;;;5.80;;
13959;SDS011;7052;51.050;3.716;2024-02-26T06:49:53;6.43;;;5.83;;
13959;SDS011;7052;51.050;3.716;2024-02-26T06:52:23;6.00;;;5.37;;
13959;SDS011;7052;51.050;3.716;2024-02-26T06:54:52;5.53;;;5.03;;
13959;SDS011;7052;51.050;3.716;2024-02-26T06:57:22;6.60;;;4.80;;
13959;SDS011;7052;51.050;3.716;2024-02-26T06:59:51;5.77;;;5.13;;
13959;SDS011;7052;51.050;3.716;2024-02-26T07:02:20;5.03;;;4.20;;
13959;SDS011;7052;51.050;3.716;2024-02-26T07:04:47;5.27;;;4.77;;
13959;SDS011;7052;51.050;3.716;2024-02-26T07:07:14;5.77;;;5.27;;
13959;SDS011;7052;51.050;3.716;2024-02-26T07:09:43;5.83;;;5.33;;
13959;SDS011;7052;51.050;3.716;2024-02-26T07:12:10;5.27;;;4.53;;
13959;SDS011;7052;51.050;3.716;2024-02-26T07:14:48;5.87;;;5.37;;
13959;SDS011;7052;51.050;3.716;2024-02-26T07:17:15;6.33;;;5.70;;
13959;SDS011;7052;51.050;3.716;2024-02-26T07:19:42;6.00;;;5.50;;
13959;SDS011;7052;51.050;3.716;2024-02-26T07:22:11;6.50;;;5.10;;
13959;SDS011;7052;51.050;3.716;2024-02-26T07:24:41;6.43;;;5.23;;
13959;SDS011;7052;51.050;3.716;2024-02-26T07:27:08;5.50;;;5.00;;
13959;SDS011;7052;51.050;3.716;2024-02-26T07:29:35;5.50;;;4.10;;
13959;SDS011;7052;51.050;3.716;2024-02-26T07:32:05;5.20;;;4.63;;
13959;SDS011;7052;51.050;3.716;2024-02-26T07:34:33;5.60;;;5.10;;
13959;SDS011;7052;51.050;3.716;2024-02-26T07:37:06;5.47;;;4.30;;
13959;SDS011;7052;51.050;3.716;2024-02-26T07:39:34;5.90;;;5.27;;
13959;SDS011;7052;51.050;3.716;2024-02-26T07:42:02;5.20;;;4.70;;
13959;SDS011;7052;51.050;3.716;2024-02-26T07:44:29;5.20;;;4.70;;
13959;SDS011;7052;51.050;3.716;2024-02-26T07:46:56;6.53;;;5.90;;
13959;SDS011;7052;51.050;3.716;2024-02-26T07:49:37;5.87;;;5.07;;
13959;SDS011;7052;51.050;3.716;2024-02-26T07:52:07;5.20;;;4.70;;
13959;SDS011;7052;51.050;3.716;2024-02-26T07:54:36;6.03;;;5.43;;
13959;SDS011;7052;51.050;3.716;2024-02-26T07:57:03;3.30;;;3.00;;
13959;SDS011;7052;51.050;3.716;2024-02-26T07:59:31;5.07;;;4.67;;
13959;SDS011;7052;51.050;3.716;2024-02-26T08:01:58;4.27;;;3.87;;
13959;SDS011;7052;51.050;3.716;2024-02-26T08:04:25;5.23;;;3.93;;
13959;SDS011;7052;51.050;3.716;2024-02-26T08:06:54;6.47;;;4.07;;
13959;SDS011;7052;51.050;3.716;2024-02-26T08:09:21;5.47;;;4.33;;
13959;SDS011;7052;51.050;3.716;2024-02-26T08:11:50;4.73;;;4.23;;
13959;SDS011;7052;51.050;3.716;2024-02-26T08:14:17;4.93;;;4.43;;
13959;SDS011;7052;51.050;3.716;2024-02-26T08:16:45;5.17;;;4.67;;
13959;SDS011;7052;51.050;3.716;2024-02-26T08:19:12;4.00;;;3.60;;
13959;SDS011;7052;51.050;3.716;2024-02-26T08:21:40;5.37;;;4.87;;
13959;SDS011;7052;51.050;3.716;2024-02-26T08:24:09;4.73;;;4.10;;
13959;SDS011;7052;51.050;3.716;2024-02-26T08:26:38;4.53;;;4.13;;
13959;SDS011;7052;51.050;3.716;2024-02-26T08:29:05;5.53;;;4.50;;
13959;SDS011;7052;51.050;3.716;2024-02-26T08:31:32;4.47;;;3.63;;
13959;SDS011;7052;51.050;3.716;2024-02-26T08:34:02;4.57;;;3.70;;
13959;SDS011;7052;51.050;3.716;2024-02-26T08:36:31;6.30;;;4.80;;
13959;SDS011;7052;51.050;3.716;2024-02-26T08:38:59;5.43;;;4.00;;
13959;SDS011;7052;51.050;3.716;2024-02-26T08:41:28;4.23;;;3.83;;
13959;SDS011;7052;51.050;3.716;2024-02-26T08:43:56;5.63;;;4.60;;
13959;SDS011;7052;51.050;3.716;2024-02-26T08:46:24;5.60;;;4.83;;
13959;SDS011;7052;51.050;3.716;2024-02-26T08:48:51;5.57;;;5.00;;
13959;SDS011;7052;51.050;3.716;2024-02-26T08:51:18;6.80;;;4.80;;
13959;SDS011;7052;51.050;3.716;2024-02-26T08:53:45;5.87;;;4.97;;
13959;SDS011;7052;51.050;3.716;2024-02-26T08:56:12;5.27;;;4.70;;
13959;SDS011;7052;51.050;3.716;2024-02-26T08:58:43;5.07;;;4.57;;
13959;SDS011;7052;51.050;3.716;2024-02-26T09:01:11;6.23;;;4.37;;
13959;SDS011;7052;51.050;3.716;2024-02-26T09:03:38;7.07;;;5.67;;
13959;SDS011;7052;51.050;3.716;2024-02-26T09:06:08;6.37;;;5.20;;
13959;SDS011;7052;51.050;3.716;2024-02-26T09:08:39;5.83;;;4.97;;
13959;SDS011;7052;51.050;3.716;2024-02-26T09:11:06;7.57;;;6.13;;
13959;SDS011;7052;51.050;3.716;2024-02-26T09:13:36;5.13;;;4.60;;
13959;SDS011;7052;51.050;3.716;2024-02-26T09:16:06;4.63;;;4.20;;
13959;SDS011;7052;51.050;3.716;2024-02-26T09:18:33;7.17;;;5.40;;
13959;SDS011;7052;51.050;3.716;2024-02-26T09:21:03;5.80;;;5.13;;
13959;SDS011;7052;51.050;3.716;2024-02-26T09:23:31;6.33;;;5.73;;
13959;SDS011;7052;51.050;3.716;2024-02-26T09:26:00;5.80;;;5.20;;
13959;SDS011;7052;51.050;3.716;2024-02-26T09:28:26;6.87;;;5.13;;
13959;SDS011;7052;51.050;3.716;2024-02-26T09:30:56;6.27;;;5.40;;
13959;SDS011;7052;51.050;3.716;2024-02-26T09:33:26;6.37;;;5.63;;
13959;SDS011;7052;51.050;3.716;2024-02-26T09:35:53;7.47;;;6.23;;
13959;SDS011;7052;51.050;3.716;2024-02-26T09:38:21;6.77;;;6.07;;
13959;SDS011;7052;51.050;3.716;2024-02-26T09:40:50;6.30;;;5.43;;
13959;SDS011;7052;51.050;3.716;2024-02-26T09:43:17;7.97;;;6.80;;
13959;SDS011;7052;51.050;3.716;2024-02-26T09:45:49;7.53;;;6.27;;
13959;SDS011;7052;51.050;3.716;2024-02-26T09:48:20;7.90;;;5.97;;
13959;SDS011;7052;51.050;3.716;2024-02-26T09:50:56;7.67;;;6.63;;
13959;SDS011;7052;51.050;3.716;2024-02-26T09:53:23;6.33;;;4.87;;
13959;SDS011;7052;51.050;3.716;2024-02-26T09:55:50;7.73;;;6.93;;
13959;SDS011;7052;51.050;3.716;2024-02-26T09:58:18;8.87;;;7.20;;
13959;SDS011;7052;51.050;3.716;2024-02-26T10:00:46;7.63;;;6.70;;
13959;SDS011;7052;51.050;3.716;2024-02-26T10:03:17;8.00;;;6.83;;
13959;SDS011;7052;51.050;3.716;2024-02-26T10:05:46;6.97;;;6.20;;
13959;SDS011;7052;51.050;3.716;2024-02-26T10:08:18;8.10;;;6.47;;
13959;SDS011;7052;51.050;3.716;2024-02-26T10:10:47;7.10;;;5.33;;
13959;SDS011;7052;51.050;3.716;2024-02-26T10:13:17;5.93;;;5.33;;
13959;SDS011;7052;51.050;3.716;2024-02-26T10:15:45;8.40;;;6.17;;
13959;SDS011;7052;51.050;3.716;2024-02-26T10:18:12;7.80;;;7.00;;
13959;SDS011;7052;51.050;3.716;2024-02-26T10:20:39;8.40;;;6.57;;
13959;SDS011;7052;51.050;3.716;2024-02-26T10:23:06;9.07;;;6.97;;
13959;SDS011;7052;51.050;3.716;2024-02-26T10:25:34;7.70;;;6.90;;
13959;SDS011;7052;51.050;3.716;2024-02-26T10:28:01;7.37;;;5.60;;
13959;SDS011;7052;51.050;3.716;2024-02-26T10:30:29;7.90;;;6.73;;
13959;SDS011;7052;51.050;3.716;2024-02-26T10:32:56;8.83;;;7.57;;
13959;SDS011;7052;51.050;3.716;2024-02-26T10:35:23;9.37;;;7.30;;
13959;SDS011;7052;51.050;3.716;2024-02-26T10:37:51;8.83;;;7.77;;
13959;SDS011;7052;51.050;3.716;2024-02-26T10:40:19;9.50;;;7.47;;
13959;SDS011;7052;51.050;3.716;2024-02-26T10:42:48;8.47;;;6.83;;
13959;SDS011;7052;51.050;3.716;2024-02-26T10:45:23;9.53;;;7.63;;
13959;SDS011;7052;51.050;3.716;2024-02-26T10:47:51;10.23;;;7.23;;
13959;SDS011;7052;51.050;3.716;2024-02-26T10:50:19;8.37;;;6.67;;
13959;SDS011;7052;51.050;3.716;2024-02-26T10:52:47;10.40;;;7.83;;
13959;SDS011;7052;51.050;3.716;2024-02-26T10:55:14;9.53;;;7.43;;
13959;SDS011;7052;51.050;3.716;2024-02-26T10:57:45;7.40;;;5.73;;
13959;SDS011;7052;51.050;3.716;2024-02-26T11:00:15;12.43;;;8.40;;
13959;SDS011;7052;51.050;3.716;2024-02-26T11:02:42;11.73;;;8.37;;
13959;SDS011;7052;51.050;3.716;2024-02-26T11:05:11;9.30;;;6.73;;
13959;SDS011;7052;51.050;3.716;2024-02-26T11:07:39;12.23;;;8.90;;
13959;SDS011;7052;51.050;3.716;2024-02-26T11:10:08;13.82;;;11.85;;
13959;SDS011;7052;51.050;3.716;2024-02-26T11:12:38;13.93;;;10.83;;
13959;SDS011;7052;51.050;3.716;2024-02-26T11:15:08;13.40;;;10.23;;
13959;SDS011;7052;51.050;3.716;2024-02-26T11:17:39;12.10;;;8.27;;
13959;SDS011;7052;51.050;3.716;2024-02-26T11:20:09;12.87;;;10.17;;
13959;SDS011;7052;51.050;3.716;2024-02-26T11:22:41;10.00;;;7.60;;
13959;SDS011;7052;51.050;3.716;2024-02-26T11:25:17;15.67;;;10.80;;
13959;SDS011;7052;51.050;3.716;2024-02-26T11:27:45;12.60;;;8.37;;
13959;SDS011;7052;51.050;3.716;2024-02-26T11:30:15;11.90;;;8.37;;
13959;SDS011;7052;51.050;3.716;2024-02-26T11:32:45;13.80;;;10.33;;
13959;SDS011;7052;51.050;3.716;2024-02-26T11:35:15;13.93;;;10.00;;
13959;SDS011;7052;51.050;3.716;2024-02-26T11:37:50;12.77;;;9.57;;
13959;SDS011;7052;51.050;3.716;2024-02-26T11:40:19;11.23;;;8.37;;
13959;SDS011;7052;51.050;3.716;2024-02-26T11:42:46;10.20;;;7.53;;
13959;SDS011;7052;51.050;3.716;2024-02-26T11:48:21;10.97;;;6.97;;
13959;SDS011;7052;51.050;3.716;2024-02-26T11:50:50;12.13;;;9.33;;
13959;SDS011;7052;51.050;3.716;2024-02-26T11:53:22;12.80;;;9.63;;
13959;SDS011;7052;51.050;3.716;2024-02-26T11:56:12;9.97;;;6.57;;
13959;SDS011;7052;51.050;3.716;2024-02-26T11:58:53;11.40;;;9.40;;
13959;SDS011;7052;51.050;3.716;2024-02-26T12:01:38;10.90;;;8.30;;
13959;SDS011;7052;51.050;3.716;2024-02-26T12:04:21;10.73;;;7.87;;
13959;SDS011;7052;51.050;3.716;2024-02-26T12:06:51;8.90;;;7.20;;
13959;SDS011;7052;51.050;3.716;2024-02-26T12:09:35;10.30;;;7.50;;
13959;SDS011;7052;51.050;3.716;2024-02-26T12:12:03;9.67;;;7.27;;
13959;SDS011;7052;51.050;3.716;2024-02-26T12:14:33;9.07;;;7.60;;
13959;SDS011;7052;51.050;3.716;2024-02-26T12:17:03;8.33;;;7.43;;
13959;SDS011;7052;51.050;3.716;2024-02-26T12:19:35;9.17;;;7.40;;
13959;SDS011;7052;51.050;3.716;2024-02-26T12:22:03;8.37;;;7.53;;
13959;SDS011;7052;51.050;3.716;2024-02-26T12:24:34;8.63;;;6.53;;
13959;SDS011;7052;51.050;3.716;2024-02-26T12:27:01;9.53;;;7.40;;
13959;SDS011;7052;51.050;3.716;2024-02-26T12:29:28;8.67;;;7.43;;
13959;SDS011;7052;51.050;3.716;2024-02-26T12:31:56;7.93;;;6.57;;
13959;SDS011;7052;51.050;3.716;2024-02-26T12:34:23;8.77;;;6.93;;
13959;SDS011;7052;51.050;3.716;2024-02-26T12:36:53;7.07;;;5.37;;
13959;SDS011;7052;51.050;3.716;2024-02-26T12:39:20;6.67;;;5.83;;
13959;SDS011;7052;51.050;3.716;2024-02-26T12:41:48;8.80;;;6.40;;
13959;SDS011;7052;51.050;3.716;2024-02-26T12:44:15;9.27;;;5.97;;
13959;SDS011;7052;51.050;3.716;2024-02-26T12:46:42;6.17;;;5.57;;
13959;SDS011;7052;51.050;3.716;2024-02-26T12:49:14;7.00;;;5.43;;
13959;SDS011;7052;51.050;3.716;2024-02-26T12:51:43;7.73;;;5.80;;
13959;SDS011;7052;51.050;3.716;2024-02-26T12:54:12;7.00;;;6.00;;
13959;SDS011;7052;51.050;3.716;2024-02-26T12:56:40;6.13;;;5.13;;
13959;SDS011;7052;51.050;3.716;2024-02-26T12:59:07;6.40;;;5.20;;
13959;SDS011;7052;51.050;3.716;2024-02-26T13:01:35;5.97;;;5.30;;
13959;SDS011;7052;51.050;3.716;2024-02-26T13:04:02;8.63;;;5.60;;
13959;SDS011;7052;51.050;3.716;2024-02-26T13:06:33;6.63;;;5.27;;
13959;SDS011;7052;51.050;3.716;2024-02-26T13:09:00;6.73;;;5.67;;
13959;SDS011;7052;51.050;3.716;2024-02-26T13:11:32;6.17;;;5.23;;
13959;SDS011;7052;51.050;3.716;2024-02-26T13:13:59;5.50;;;4.87;;
13959;SDS011;7052;51.050;3.716;2024-02-26T13:16:26;5.57;;;4.80;;
13959;SDS011;7052;51.050;3.716;2024-02-26T13:18:54;6.57;;;5.40;;
13959;SDS011;7052;51.050;3.716;2024-02-26T13:21:22;7.03;;;5.90;;
13959;SDS011;7052;51.050;3.716;2024-02-26T13:23:52;6.78;;;6.07;;
13959;SDS011;7052;51.050;3.716;2024-02-26T13:26:21;7.63;;;6.00;;
13959;SDS011;7052;51.050;3.716;2024-02-26T13:29:02;7.33;;;6.23;;
13959;SDS011;7052;51.050;3.716;2024-02-26T13:31:29;6.13;;;5.20;;
13959;SDS011;7052;51.050;3.716;2024-02-26T13:33:57;5.80;;;5.23;;
13959;SDS011;7052;51.050;3.716;2024-02-26T13:36:24;6.87;;;5.13;;
13959;SDS011;7052;51.050;3.716;2024-02-26T13:38:52;7.57;;;5.47;;
13959;SDS011;7052;51.050;3.716;2024-02-26T13:41:19;6.20;;;5.40;;
13959;SDS011;7052;51.050;3.716;2024-02-26T13:43:48;7.57;;;5.13;;
13959;SDS011;7052;51.050;3.716;2024-02-26T13:46:18;6.67;;;5.40;;
13959;SDS011;7052;51.050;3.716;2024-02-26T13:48:46;6.10;;;4.80;;
13959;SDS011;7052;51.050;3.716;2024-02-26T13:51:13;8.77;;;5.80;;
13959;SDS011;7052;51.050;3.716;2024-02-26T13:53:43;7.20;;;5.90;;
13959;SDS011;7052;51.050;3.716;2024-02-26T13:58:43;5.83;;;5.20;;
13959;SDS011;7052;51.050;3.716;2024-02-26T14:01:10;6.93;;;5.17;;
13959;SDS011;7052;51.050;3.716;2024-02-26T14:03:38;7.70;;;5.77;;
13959;SDS011;7052;51.050;3.716;2024-02-26T14:06:07;7.33;;;5.70;;
13959;SDS011;7052;51.050;3.716;2024-02-26T14:08:34;5.90;;;4.30;;
13959;SDS011;7052;51.050;3.716;2024-02-26T14:11:01;7.47;;;6.40;;
13959;SDS011;7052;51.050;3.716;2024-02-26T14:13:35;6.87;;;4.80;;
13959;SDS011;7052;51.050;3.716;2024-02-26T14:16:03;6.63;;;5.50;;
13959;SDS011;7052;51.050;3.716;2024-02-26T14:18:31;4.30;;;3.90;;
13959;SDS011;7052;51.050;3.716;2024-02-26T14:21:00;5.10;;;4.60;;
13959;SDS011;7052;51.050;3.716;2024-02-26T14:23:27;5.53;;;4.70;;
13959;SDS011;7052;51.050;3.716;2024-02-26T14:25:54;4.73;;;4.23;;
13959;SDS011;7052;51.050;3.716;2024-02-26T14:28:21;7.30;;;5.57;;
13959;SDS011;7052;51.050;3.716;2024-02-26T14:30:49;6.67;;;5.53;;
13959;SDS011;7052;51.050;3.716;2024-02-26T14:33:16;5.73;;;5.23;;
13959;SDS011;7052;51.050;3.716;2024-02-26T14:35:44;6.00;;;4.93;;
13959;SDS011;7052;51.050;3.716;2024-02-26T14:38:13;6.87;;;5.63;;
13959;SDS011;7052;51.050;3.716;2024-02-26T14:40:42;6.67;;;6.07;;
13959;SDS011;7052;51.050;3.716;2024-02-26T14:43:09;8.23;;;5.90;;
13959;SDS011;7052;51.050;3.716;2024-02-26T14:45:36;7.23;;;6.50;;
13959;SDS011;7052;51.050;3.716;2024-02-26T14:48:04;8.33;;;6.20;;
13959;SDS011;7052;51.050;3.716;2024-02-26T14:50:32;7.10;;;6.40;;
13959;SDS011;7052;51.050;3.716;2024-02-26T14:52:59;7.43;;;5.70;;
13959;SDS011;7052;51.050;3.716;2024-02-26T14:55:29;6.63;;;5.23;;
13959;SDS011;7052;51.050;3.716;2024-02-26T14:57:56;7.90;;;6.00;;
13959;SDS011;7052;51.050;3.716;2024-02-26T15:00:23;6.67;;;5.47;;
13959;SDS011;7052;51.050;3.716;2024-02-26T15:02:51;6.57;;;5.50;;
13959;SDS011;7052;51.050;3.716;2024-02-26T15:05:20;8.07;;;6.50;;
13959;SDS011;7052;51.050;3.716;2024-02-26T15:07:48;7.00;;;6.30;;
13959;SDS011;7052;51.050;3.716;2024-02-26T15:10:15;7.10;;;6.40;;
13959;SDS011;7052;51.050;3.716;2024-02-26T15:12:43;9.60;;;6.83;;